Time;durP1;ratioP1;P1;durP2;ratioP2;P2;SDS_P1;SDS_P2;PMS_P1;PMS_P2;Temp;Humidity;BMP_temperature;BMP_pressure;BME280_temperature;BME280_humidity;BME280_pressure;Samples;Min_cycle;Max_cycle;Signal;HPM_P1;HPM_P2
2023/08/08 00:01:13;;;;;;;3.55;1.77;;;;;;;13.53;58.41;100213.31;5022488;28;20057;-59
2023/08/08 00:03:39;;;;;;;3.00;1.63;;;;;;;13.50;58.57;100210.75;5027523;28;20053;-59
2023/08/08 00:06:06;;;;;;;6.18;2.25;;;;;;;13.46;59.47;100216.84;5019290;28;20089;-59
2023/08/08 00:08:33;;;;;;;2.15;1.75;;;;;;;13.44;59.31;100216.03;5006311;28;20045;-59
2023/08/08 00:10:59;;;;;;;2.70;1.20;;;;;;;13.40;58.62;100212.56;5006778;28;20723;-59
2023/08/08 00:13:26;;;;;;;2.53;2.03;;;;;;;13.37;59.81;100213.47;5006290;28;20049;-59
2023/08/08 00:15:53;;;;;;;4.50;1.80;;;;;;;13.35;59.31;100201.38;5001367;28;20580;-59
2023/08/08 00:18:19;;;;;;;3.30;1.92;;;;;;;13.32;59.62;100199.69;5003168;28;20125;-59
2023/08/08 00:20:46;;;;;;;3.67;2.25;;;;;;;13.28;59.61;100199.72;5007389;28;20046;-60
2023/08/08 00:23:13;;;;;;;3.90;1.88;;;;;;;13.25;59.33;100203.22;5004695;28;20046;-59
2023/08/08 00:25:39;;;;;;;3.20;0.82;;;;;;;13.23;59.30;100204.97;5004447;28;20406;-59
2023/08/08 00:28:06;;;;;;;2.25;1.73;;;;;;;13.20;59.95;100194.59;5005298;28;20054;-59
2023/08/08 00:30:33;;;;;;;4.20;1.60;;;;;;;13.18;59.67;100191.16;5002258;28;20054;-60
2023/08/08 00:32:59;;;;;;;3.58;1.55;;;;;;;13.15;59.37;100186.00;5002738;28;20072;-59
2023/08/08 00:35:26;;;;;;;4.10;1.90;;;;;;;13.10;60.21;100189.50;5002687;28;20053;-61
2023/08/08 00:37:53;;;;;;;2.40;1.40;;;;;;;13.10;59.86;100184.31;5006028;28;20046;-59
2023/08/08 00:40:20;;;;;;;3.05;1.65;;;;;;;13.07;60.00;100171.31;5003171;28;20056;-59
2023/08/08 00:42:47;;;;;;;2.63;1.73;;;;;;;13.06;59.88;100179.13;5003581;28;20101;-60
2023/08/08 00:45:13;;;;;;;2.88;1.75;;;;;;;13.02;60.76;100175.72;5001510;28;20052;-60
2023/08/08 00:47:40;;;;;;;3.05;1.67;;;;;;;12.99;60.54;100173.16;5004441;28;20042;-59
2023/08/08 00:50:08;;;;;;;3.78;1.90;;;;;;;12.95;59.56;100171.47;5000691;28;20056;-59
2023/08/08 00:52:35;;;;;;;4.45;2.47;;;;;;;12.92;60.02;100171.50;5001017;28;20604;-59
2023/08/08 00:55:03;;;;;;;4.13;1.92;;;;;;;12.88;60.98;100170.69;5004787;28;20137;-58
2023/08/08 00:57:30;;;;;;;2.78;1.80;;;;;;;12.84;60.90;100171.59;5006850;28;20084;-58
2023/08/08 00:59:57;;;;;;;3.60;1.38;;;;;;;12.80;60.47;100173.34;5006778;28;20054;-59
2023/08/08 01:02:23;;;;;;;3.53;1.58;;;;;;;12.78;59.98;100172.50;5001655;28;20054;-57
2023/08/08 01:04:50;;;;;;;3.33;1.67;;;;;;;12.75;60.28;100169.94;5004235;28;20050;-59
2023/08/08 01:07:30;;;;;;;2.53;1.85;;;;;;;12.70;60.37;100169.97;5004542;28;20521;-59
2023/08/08 01:12:40;;;;;;;2.85;0.63;;;;;;;12.68;60.41;100161.34;5038226;28;20399;-60
2023/08/08 01:15:08;;;;;;;2.45;0.77;;;;;;;12.66;60.36;100157.03;5026550;28;20521;-59
2023/08/08 01:17:36;;;;;;;1.85;0.80;;;;;;;12.62;61.76;100155.31;5022410;28;20510;-60
2023/08/08 01:20:05;;;;;;;3.45;1.98;;;;;;;12.58;61.61;100160.56;5023262;28;20421;-59
2023/08/08 01:22:42;;;;;;;2.30;1.50;;;;;;;12.52;61.66;100160.63;5040650;28;20060;-59
2023/08/08 01:25:10;;;;;;;2.20;0.90;;;;;;;12.50;61.85;100159.75;5039177;28;20057;-60
2023/08/08 01:27:37;;;;;;;2.63;0.70;;;;;;;12.47;60.89;100152.00;5041816;28;20540;-57
2023/08/08 01:30:06;;;;;;;1.90;1.20;;;;;;;12.44;62.19;100146.84;5043217;28;20048;-59
2023/08/08 01:32:33;;;;;;;3.25;0.75;;;;;;;12.42;62.18;100156.38;5042013;28;20421;-59
2023/08/08 01:35:00;;;;;;;2.25;0.77;;;;;;;12.41;62.28;100144.25;5041170;28;20067;-59
2023/08/08 01:37:35;;;;;;;2.67;0.60;;;;;;;12.39;61.16;100127.84;5039175;28;20048;-58
2023/08/08 01:40:04;;;;;;;1.92;0.70;;;;;;;12.40;61.16;100129.56;5041792;28;20060;-59
2023/08/08 01:42:32;;;;;;;1.95;0.73;;;;;;;12.39;61.40;100127.84;5042474;28;20040;-58
2023/08/08 01:44:59;;;;;;;1.58;0.60;;;;;;;12.37;62.49;100129.59;5042259;28;20048;-58
2023/08/08 01:47:25;;;;;;;3.20;0.88;;;;;;;12.34;62.29;100128.72;5043920;28;20049;-58
2023/08/08 01:49:52;;;;;;;2.08;0.75;;;;;;;12.33;62.50;100132.19;5041021;28;20053;-59
2023/08/08 01:52:19;;;;;;;3.38;0.80;;;;;;;12.31;62.54;100131.38;5040543;28;20045;-58
2023/08/08 01:54:46;;;;;;;5.43;0.63;;;;;;;12.30;63.11;100134.81;5042016;28;20053;-58
2023/08/08 01:57:12;;;;;;;2.45;1.13;;;;;;;12.27;62.87;100137.47;5042595;28;20476;-59
2023/08/08 01:59:39;;;;;;;3.85;0.70;;;;;;;12.25;61.80;100131.41;5041777;28;20057;-57
2023/08/08 02:02:06;;;;;;;2.95;0.65;;;;;;;12.25;62.09;100136.59;5043578;28;20128;-55
2023/08/08 02:04:35;;;;;;;3.53;1.08;;;;;;;12.22;63.11;100126.22;5029268;28;20099;-58
2023/08/08 02:07:02;;;;;;;2.58;0.57;;;;;;;12.19;62.85;100121.94;5040769;28;20049;-57
2023/08/08 02:09:29;;;;;;;1.30;0.70;;;;;;;12.20;62.15;100120.22;5038510;28;20053;-56
2023/08/08 02:11:55;;;;;;;1.85;0.90;;;;;;;12.17;62.60;100122.81;5041450;28;20052;-57
2023/08/08 02:14:23;;;;;;;2.72;1.20;;;;;;;12.14;63.40;100122.84;5041993;28;20053;-56
2023/08/08 02:16:49;;;;;;;1.75;0.75;;;;;;;12.13;63.30;100121.13;5042087;28;20044;-57
2023/08/08 02:19:16;;;;;;;2.85;0.82;;;;;;;12.12;63.61;100111.63;5041647;28;20053;-58
2023/08/08 02:21:43;;;;;;;1.63;0.80;;;;;;;12.11;63.80;100113.34;5039916;28;20055;-58
2023/08/08 02:24:09;;;;;;;2.33;0.88;;;;;;;12.10;63.37;100105.56;5025815;28;20193;-59
2023/08/08 02:26:36;;;;;;;2.58;0.80;;;;;;;12.08;63.75;100108.19;5022569;28;20115;-58
2023/08/08 02:29:03;;;;;;;1.95;0.60;;;;;;;12.07;62.85;100111.66;5021425;28;20099;-58
2023/08/08 02:31:29;;;;;;;2.53;0.77;;;;;;;12.07;63.76;100120.31;5025616;28;20076;-58
2023/08/08 02:33:56;;;;;;;2.03;0.77;;;;;;;12.07;64.13;100112.53;5025309;28;20067;-58
2023/08/08 02:36:23;;;;;;;3.63;0.75;;;;;;;12.08;63.25;100113.38;5024930;28;20045;-58
2023/08/08 02:38:53;;;;;;;1.52;0.80;;;;;;;12.08;62.77;100109.06;5023370;28;20041;-59
2023/08/08 02:41:20;;;;;;;4.35;0.90;;;;;;;12.10;63.81;100110.75;5026945;28;20049;-58
2023/08/08 02:43:47;;;;;;;3.20;0.77;;;;;;;12.10;63.46;100108.16;5024503;28;20060;-58
2023/08/08 02:46:13;;;;;;;4.10;0.70;;;;;;;12.10;63.37;100103.84;5025818;28;20045;-58
2023/08/08 02:48:40;;;;;;;2.13;0.80;;;;;;;12.11;63.88;100107.28;5023716;28;20073;-60
2023/08/08 02:51:07;;;;;;;2.35;0.80;;;;;;;12.11;63.36;100104.69;5022738;28;20046;-59
2023/08/08 02:53:34;;;;;;;2.38;0.70;;;;;;;12.13;63.16;100108.16;5024986;28;20038;-58
2023/08/08 02:56:00;;;;;;;3.38;0.98;;;;;;;12.14;63.58;100107.25;5027333;28;20524;-58
2023/08/08 02:58:27;;;;;;;3.03;1.90;;;;;;;12.17;63.83;100112.44;5023201;28;20731;-58
2023/08/08 03:00:53;;;;;;;2.72;0.70;;;;;;;12.16;64.49;100110.72;5023648;28;20040;-58
2023/08/08 03:03:20;;;;;;;2.38;0.70;;;;;;;12.19;63.70;100105.47;5022606;28;20520;-58
2023/08/08 03:05:47;;;;;;;1.52;0.60;;;;;;;12.18;63.74;100102.03;5021778;28;20081;-58
2023/08/08 03:08:14;;;;;;;2.38;0.80;;;;;;;12.20;63.93;100112.41;5022467;28;20053;-60
2023/08/08 03:10:40;;;;;;;3.30;0.80;;;;;;;12.22;64.76;100108.06;5021402;28;20050;-58
2023/08/08 03:13:07;;;;;;;2.45;0.95;;;;;;;12.25;63.45;100114.97;5025286;28;20054;-58
2023/08/08 03:15:35;;;;;;;2.17;0.52;;;;;;;12.26;63.94;100107.16;5024101;28;20049;-58
2023/08/08 03:18:03;;;;;;;1.80;1.13;;;;;;;12.27;63.66;100108.91;5019343;28;20049;-59
2023/08/08 03:20:29;;;;;;;2.75;0.60;;;;;;;12.28;64.99;100109.75;5023157;28;20141;-59
2023/08/08 03:22:56;;;;;;;2.70;0.73;;;;;;;12.29;63.76;100107.13;5026501;28;20482;-59
2023/08/08 03:25:23;;;;;;;2.65;0.93;;;;;;;12.29;63.92;100117.53;5024998;28;20069;-59
2023/08/08 03:27:49;;;;;;;3.33;0.95;;;;;;;12.28;64.43;100110.63;5023172;28;20052;-58
2023/08/08 03:30:16;;;;;;;2.55;1.48;;;;;;;12.28;65.11;100110.63;5025125;28;20522;-59
2023/08/08 03:32:43;;;;;;;3.00;2.65;;;;;;;12.28;64.83;100115.81;5025360;28;20437;-58
2023/08/08 03:35:09;;;;;;;2.53;1.00;;;;;;;12.28;65.26;100115.81;5017486;28;20049;-57
2023/08/08 03:37:36;;;;;;;3.33;1.02;;;;;;;12.27;64.42;100114.09;5022202;28;20045;-58
2023/08/08 03:40:03;;;;;;;3.67;0.90;;;;;;;12.29;64.65;100119.28;5022659;28;20184;-59
2023/08/08 03:42:30;;;;;;;1.95;0.60;;;;;;;12.30;65.50;100124.44;5025520;28;20037;-57
2023/08/08 03:44:56;;;;;;;3.00;1.20;;;;;;;12.30;64.62;100119.22;5026266;28;20050;-59
2023/08/08 03:47:23;;;;;;;2.22;1.88;;;;;;;12.31;63.93;100114.91;5022130;28;20589;-59
2023/08/08 03:49:50;;;;;;;1.17;0.32;;;;;;;12.32;65.05;100122.69;5015974;28;20054;-59
2023/08/08 03:52:16;;;;;;;2.90;0.75;;;;;;;12.32;64.57;100114.91;5025124;28;20037;-57
2023/08/08 03:54:44;;;;;;;1.30;0.60;;;;;;;12.32;63.97;100116.63;5025185;28;20046;-59
2023/08/08 03:57:10;;;;;;;1.52;1.02;;;;;;;12.32;64.42;100117.50;5024171;28;20063;-57
2023/08/08 03:59:37;;;;;;;2.38;0.73;;;;;;;12.30;64.26;100108.84;5021207;28;20045;-58
2023/08/08 04:02:04;;;;;;;2.38;1.02;;;;;;;12.30;65.07;100113.19;5021400;28;20052;-57
2023/08/08 04:04:31;;;;;;;2.08;0.93;;;;;;;12.29;64.57;100117.53;5022251;28;20077;-58
2023/08/08 04:06:58;;;;;;;2.30;0.70;;;;;;;12.31;64.58;100114.91;5007340;28;20046;-58
2023/08/08 04:09:25;;;;;;;2.33;0.60;;;;;;;12.29;64.61;100112.31;5001122;28;20085;-56
2023/08/08 04:11:51;;;;;;;2.25;0.85;;;;;;;12.31;64.31;100115.78;5005487;28;20046;-58
2023/08/08 04:14:18;;;;;;;2.53;0.88;;;;;;;12.33;64.76;100114.03;5004510;28;20068;-58
2023/08/08 04:16:45;;;;;;;1.70;0.70;;;;;;;12.32;64.99;100109.72;4998323;28;20068;-58
2023/08/08 04:19:11;;;;;;;2.83;0.88;;;;;;;12.33;64.63;100106.22;4995479;28;20074;-57
2023/08/08 04:21:38;;;;;;;3.35;0.95;;;;;;;12.32;64.79;100107.09;4995383;28;20050;-59
2023/08/08 04:24:07;;;;;;;1.95;0.90;;;;;;;12.31;64.88;100115.78;4997831;28;20100;-58
2023/08/08 04:26:34;;;;;;;2.90;2.08;;;;;;;12.29;65.72;100116.69;4997560;28;20439;-59
2023/08/08 04:29:00;;;;;;;2.70;0.90;;;;;;;12.27;65.68;100111.50;4998344;28;20075;-59
2023/08/08 04:31:28;;;;;;;1.55;0.80;;;;;;;12.25;66.16;100109.75;4996398;28;20053;-60
2023/08/08 04:33:59;;;;;;;4.15;1.17;;;;;;;12.22;66.09;100102.88;4996499;28;20461;-57
2023/08/08 04:36:28;;;;;;;3.22;0.75;;;;;;;12.20;66.24;100102.03;4994495;28;20050;-59
2023/08/08 04:38:55;;;;;;;2.00;1.65;;;;;;;12.18;64.84;100098.56;4999051;28;20481;-58
2023/08/08 04:41:22;;;;;;;3.15;0.90;;;;;;;12.16;66.33;100097.75;4997647;28;20042;-55
2023/08/08 04:43:48;;;;;;;2.15;1.00;;;;;;;12.13;66.53;100095.16;5000737;28;20402;-58
2023/08/08 04:46:15;;;;;;;2.00;0.90;;;;;;;12.13;65.79;100092.56;4999998;28;20053;-58
2023/08/08 04:48:42;;;;;;;2.65;0.75;;;;;;;12.12;66.73;100088.25;4997248;28;20125;-58
2023/08/08 04:51:09;;;;;;;2.65;1.52;;;;;;;12.11;65.29;100084.78;4997984;28;20049;-58
2023/08/08 04:53:36;;;;;;;1.90;1.08;;;;;;;12.12;66.59;100083.06;4993178;28;20054;-58
2023/08/08 04:56:02;;;;;;;2.00;0.82;;;;;;;12.12;66.10;100085.66;4995082;28;20061;-57
2023/08/08 04:58:29;;;;;;;3.35;1.08;;;;;;;12.11;65.51;100086.50;5001272;28;20042;-57
2023/08/08 05:00:56;;;;;;;2.50;0.93;;;;;;;12.14;65.91;100095.16;4994820;28;20068;-58
2023/08/08 05:03:23;;;;;;;2.08;1.00;;;;;;;12.14;65.83;100086.50;4998114;28;20045;-59
2023/08/08 05:05:50;;;;;;;1.80;0.77;;;;;;;12.16;66.15;100089.94;4998301;28;20050;-56
2023/08/08 05:08:17;;;;;;;6.22;1.00;;;;;;;12.16;66.01;100083.00;4999682;28;20058;-59
2023/08/08 05:10:44;;;;;;;2.80;0.75;;;;;;;12.18;65.76;100080.41;4994911;28;20128;-59
2023/08/08 05:13:10;;;;;;;2.83;0.90;;;;;;;12.19;65.76;100089.91;4997746;28;20052;-59
2023/08/08 05:15:37;;;;;;;4.32;1.75;;;;;;;12.23;66.42;100094.22;4997106;28;20515;-58
2023/08/08 05:18:04;;;;;;;1.77;0.75;;;;;;;12.23;65.98;100076.03;4999148;28;20053;-57
2023/08/08 05:20:31;;;;;;;2.22;0.90;;;;;;;12.25;66.30;100073.41;4999500;28;20050;-58
2023/08/08 05:22:58;;;;;;;2.15;0.90;;;;;;;12.26;67.07;100065.59;5001278;28;20042;-58
2023/08/08 05:25:25;;;;;;;2.67;0.95;;;;;;;12.30;66.50;100077.69;4994647;28;20553;-59
2023/08/08 05:27:53;;;;;;;3.47;0.88;;;;;;;12.31;67.12;100066.44;4994367;28;20053;-58
2023/08/08 05:30:20;;;;;;;2.85;0.88;;;;;;;12.36;67.43;100062.94;4996275;28;20038;-59
2023/08/08 05:32:46;;;;;;;4.00;1.00;;;;;;;12.38;67.30;100075.03;4997492;28;20076;-58
2023/08/08 05:35:13;;;;;;;3.75;0.95;;;;;;;12.43;67.25;100081.03;4999289;28;20043;-59
2023/08/08 05:37:40;;;;;;;2.08;0.68;;;;;;;12.47;67.16;100080.13;4997516;28;20050;-59
2023/08/08 05:40:07;;;;;;;4.15;1.00;;;;;;;12.52;67.02;100077.47;4996602;28;20620;-60
2023/08/08 05:42:34;;;;;;;2.58;0.90;;;;;;;12.59;66.32;100078.28;4994798;28;20057;-58
2023/08/08 05:45:00;;;;;;;6.07;1.40;;;;;;;12.64;67.57;100073.91;4993839;28;20129;-58
2023/08/08 05:47:27;;;;;;;2.60;1.00;;;;;;;12.72;67.29;100081.59;4991470;28;20050;-56
2023/08/08 05:49:54;;;;;;;1.95;0.75;;;;;;;12.78;66.34;100084.16;4997050;28;20046;-58
2023/08/08 05:52:21;;;;;;;3.00;0.82;;;;;;;12.85;66.40;100085.81;4995487;28;20057;-57
2023/08/08 05:54:48;;;;;;;6.30;1.10;;;;;;;12.91;67.43;100084.88;4993756;28;20050;-57
2023/08/08 05:57:15;;;;;;;7.22;1.30;;;;;;;12.96;67.73;100087.38;4992635;28;20579;-56
2023/08/08 05:59:44;;;;;;;2.70;1.10;;;;;;;13.02;67.24;100091.66;5000735;28;20045;-58
2023/08/08 06:02:11;;;;;;;2.00;0.82;;;;;;;13.07;66.75;100088.13;4991695;28;20046;-56
2023/08/08 06:04:38;;;;;;;1.95;0.90;;;;;;;13.15;67.46;100094.97;4995796;28;20129;-58
2023/08/08 06:07:05;;;;;;;1.98;0.82;;;;;;;13.20;66.55;100085.34;4995081;28;20492;-57
2023/08/08 06:09:37;;;;;;;2.53;0.95;;;;;;;13.26;67.08;100095.69;5001951;28;20133;-58
2023/08/08 06:12:04;;;;;;;3.47;0.93;;;;;;;13.31;67.62;100086.06;4996603;28;20129;-58
2023/08/08 06:14:31;;;;;;;2.58;1.20;;;;;;;13.37;67.25;100090.34;5001231;28;20698;-58
2023/08/08 06:16:58;;;;;;;5.22;1.55;;;;;;;13.45;66.61;100085.03;5006876;28;20049;-58
2023/08/08 06:19:24;;;;;;;2.97;1.13;;;;;;;13.50;66.52;100091.06;4997767;28;20056;-58
2023/08/08 06:21:51;;;;;;;3.50;0.93;;;;;;;13.56;67.62;100085.78;5001748;28;20034;-58
2023/08/08 06:24:18;;;;;;;2.70;1.05;;;;;;;13.64;67.25;100084.81;5010453;28;20536;-58
2023/08/08 06:26:45;;;;;;;2.15;0.90;;;;;;;13.71;67.11;100081.25;5019029;28;20053;-57
2023/08/08 06:29:13;;;;;;;2.40;0.80;;;;;;;13.78;66.65;100072.44;5003438;28;20560;-58
2023/08/08 06:31:42;;;;;;;5.93;0.93;;;;;;;13.86;66.88;100070.59;5002727;28;20501;-58
2023/08/08 06:34:09;;;;;;;1.95;0.88;;;;;;;13.97;67.22;100061.72;5002413;28;20140;-58
2023/08/08 06:36:35;;;;;;;3.85;1.23;;;;;;;14.09;66.74;100064.09;5002062;28;20046;-58
2023/08/08 06:39:02;;;;;;;3.00;1.00;;;;;;;14.26;67.26;100062.97;5007433;28;20046;-58
2023/08/08 06:41:30;;;;;;;2.03;1.00;;;;;;;14.47;67.22;100072.16;5003887;28;20054;-58
2023/08/08 06:43:57;;;;;;;2.42;0.90;;;;;;;14.74;66.97;100075.13;5000940;28;20110;-56
2023/08/08 06:46:24;;;;;;;4.47;1.33;;;;;;;15.06;67.22;100080.59;5022173;28;20056;-58
2023/08/08 06:48:56;;;;;;;3.90;1.15;;;;;;;15.38;67.15;100080.78;5023503;28;20073;-58
2023/08/08 06:51:24;;;;;;;3.90;1.25;;;;;;;15.72;66.59;100085.25;5028079;28;20088;-58
2023/08/08 06:53:52;;;;;;;1.70;0.85;;;;;;;16.02;66.50;100092.41;5023287;28;20060;-59
2023/08/08 06:56:18;;;;;;;3.88;1.88;;;;;;;16.31;65.91;100080.34;5020844;28;20053;-57
2023/08/08 06:58:45;;;;;;;5.68;1.63;;;;;;;16.57;66.36;100082.28;5004629;28;20050;-56
2023/08/08 07:01:13;;;;;;;6.00;1.20;;;;;;;16.92;65.95;100079.56;5000136;28;20069;-57
2023/08/08 07:03:40;;;;;;;2.35;0.95;;;;;;;17.30;65.50;100062.81;4999883;28;20076;-58
2023/08/08 07:06:07;;;;;;;1.88;1.05;;;;;;;17.68;64.73;100062.50;4997705;28;20049;-57
2023/08/08 07:08:34;;;;;;;2.47;0.75;;;;;;;18.02;63.92;100065.78;4993787;28;20048;-57
2023/08/08 07:11:01;;;;;;;1.77;0.82;;;;;;;18.21;63.78;100061.66;5001596;28;20050;-58
2023/08/08 07:13:27;;;;;;;2.13;1.15;;;;;;;18.43;63.05;100054.81;4992606;28;20077;-57
2023/08/08 07:15:54;;;;;;;2.33;1.02;;;;;;;18.56;62.69;100057.84;4993686;28;20054;-57
2023/08/08 07:18:21;;;;;;;2.92;1.17;;;;;;;18.60;61.84;100054.19;4992931;28;20057;-54
2023/08/08 07:20:49;;;;;;;5.20;1.00;;;;;;;18.56;61.22;100073.59;4997534;28;20042;-57
2023/08/08 07:23:17;;;;;;;2.35;1.02;;;;;;;18.45;61.61;100069.59;4995781;28;20053;-58
2023/08/08 07:25:44;;;;;;;3.13;1.20;;;;;;;18.35;61.78;100062.94;4995078;28;20072;-59
2023/08/08 07:28:11;;;;;;;2.47;0.90;;;;;;;18.29;61.30;100063.16;4993248;28;20096;-57
2023/08/08 07:30:38;;;;;;;2.20;1.33;;;;;;;18.21;61.53;100066.88;4992799;28;20157;-58
2023/08/08 07:33:04;;;;;;;2.92;1.10;;;;;;;18.13;61.27;100063.69;4989435;28;20052;-57
2023/08/08 07:35:33;;;;;;;3.55;2.13;;;;;;;18.07;61.91;100063.88;4991990;28;20722;-57
2023/08/08 07:38:00;;;;;;;3.45;0.77;;;;;;;18.03;61.66;100052.63;4993450;28;20660;-59
2023/08/08 07:40:27;;;;;;;2.08;0.82;;;;;;;17.98;61.96;100054.56;4995337;28;20148;-58
2023/08/08 07:42:54;;;;;;;1.65;1.00;;;;;;;17.97;61.70;100058.09;4990697;28;20893;-57
2023/08/08 07:45:21;;;;;;;1.83;0.98;;;;;;;17.95;61.22;100060.75;4993820;28;20046;-58
2023/08/08 07:47:47;;;;;;;2.25;0.80;;;;;;;17.96;61.36;100057.22;4995126;28;20133;-59
2023/08/08 07:50:14;;;;;;;2.83;1.15;;;;;;;17.93;61.03;100065.19;4988943;28;20396;-55
2023/08/08 07:52:41;;;;;;;2.28;0.82;;;;;;;17.91;61.92;100053.03;4996040;28;20042;-59
2023/08/08 07:55:08;;;;;;;2.40;1.10;;;;;;;17.89;61.45;100055.72;4995553;28;20060;-59
2023/08/08 07:57:35;;;;;;;2.55;0.55;;;;;;;17.90;60.95;100060.03;4992791;28;20136;-58
2023/08/08 08:00:11;;;;;;;3.28;1.30;;;;;;;17.90;61.37;100049.56;4995975;28;20049;-59
2023/08/08 08:02:39;;;;;;;3.45;2.63;;;;;;;17.89;60.97;100055.72;4994694;28;22041;-57
2023/08/08 08:05:07;;;;;;;3.33;1.30;;;;;;;17.88;61.42;100046.16;4992041;28;20494;-59
2023/08/08 08:07:35;;;;;;;2.20;0.80;;;;;;;17.86;61.66;100055.81;4997300;28;20069;-58
2023/08/08 08:10:04;;;;;;;4.15;0.93;;;;;;;17.85;61.74;100054.09;4994988;28;20057;-57
2023/08/08 08:12:31;;;;;;;6.55;1.17;;;;;;;17.85;61.02;100051.47;4996418;28;20100;-58
2023/08/08 08:14:58;;;;;;;2.03;0.80;;;;;;;17.86;61.01;100055.81;4998730;28;20101;-57
2023/08/08 08:17:25;;;;;;;2.03;1.13;;;;;;;17.89;62.09;100054.84;4999897;28;20054;-58
2023/08/08 08:19:54;;;;;;;3.22;1.50;;;;;;;17.93;61.34;100061.72;5000330;28;20145;-56
2023/08/08 08:22:21;;;;;;;2.58;0.90;;;;;;;17.96;61.30;100046.75;5014010;28;20050;-58
2023/08/08 08:24:48;;;;;;;2.55;1.20;;;;;;;18.04;61.80;100050.88;5015259;28;20052;-58
2023/08/08 08:27:14;;;;;;;3.83;1.20;;;;;;;18.09;61.01;100051.59;5021373;28;20055;-57
2023/08/08 08:29:41;;;;;;;3.10;2.28;;;;;;;18.10;61.54;100043.69;5022604;28;20410;-57
2023/08/08 08:32:08;;;;;;;3.35;2.70;;;;;;;18.14;61.44;100052.31;5024629;28;20422;-58
2023/08/08 08:34:35;;;;;;;3.30;1.23;;;;;;;18.17;60.80;100051.34;5025056;28;20049;-57
2023/08/08 08:37:02;;;;;;;6.00;1.15;;;;;;;18.22;61.40;100058.13;5021580;28;20041;-58
2023/08/08 08:39:28;;;;;;;4.25;1.63;;;;;;;18.24;60.53;100056.31;5021968;28;20069;-56
2023/08/08 08:42:04;;;;;;;6.40;1.13;;;;;;;18.26;61.26;100047.53;5023518;28;20049;-59
2023/08/08 08:44:32;;;;;;;3.70;1.10;;;;;;;18.24;60.76;100048.44;5024882;28;20049;-57
2023/08/08 08:47:02;;;;;;;3.05;1.20;;;;;;;18.27;61.09;100059.75;5022818;28;20050;-57
2023/08/08 08:49:30;;;;;;;5.22;1.10;;;;;;;18.30;60.48;100060.47;5023175;28;20045;-58
2023/08/08 08:52:04;;;;;;;3.50;1.00;;;;;;;18.37;61.32;100055.88;5017704;28;20616;-59
2023/08/08 08:54:32;;;;;;;2.55;0.90;;;;;;;18.43;61.32;100050.41;5016897;28;20152;-58
2023/08/08 08:56:59;;;;;;;2.28;1.05;;;;;;;18.51;61.04;100052.78;5020363;28;20042;-58
2023/08/08 08:59:26;;;;;;;4.53;1.33;;;;;;;18.56;60.53;100060.47;5028848;28;20045;-58
2023/08/08 09:01:53;;;;;;;3.35;0.93;;;;;;;18.56;60.68;100060.47;5015489;28;20095;-59
2023/08/08 09:04:21;;;;;;;3.58;0.77;;;;;;;18.57;60.75;100043.81;5017788;28;20099;-58
2023/08/08 09:06:50;;;;;;;3.83;1.20;;;;;;;18.63;60.73;100054.09;5018866;28;20041;-59
2023/08/08 09:09:17;;;;;;;1.75;1.08;;;;;;;18.68;60.20;100044.28;5012586;28;20056;-58
2023/08/08 09:11:47;;;;;;;2.97;1.00;;;;;;;18.77;60.27;100032.59;5016146;28;20046;-57
2023/08/08 09:14:16;;;;;;;3.42;1.27;;;;;;;18.80;60.14;100040.34;5014463;28;20394;-59
2023/08/08 09:16:43;;;;;;;;;;;;;;;18.71;59.99;100038.09;4997513;28;20049;-55
2023/08/08 09:19:10;;;;;;;2.75;0.90;;;;;;;18.86;60.16;100047.16;4991760;28;19956;-58
2023/08/08 09:21:37;;;;;;;2.00;0.90;;;;;;;18.93;59.76;100059.13;4995855;28;20042;-57
2023/08/08 09:24:04;;;;;;;4.50;1.10;;;;;;;18.98;59.60;100051.94;4991878;28;20057;-58
2023/08/08 09:26:31;;;;;;;3.42;2.15;;;;;;;19.00;59.41;100054.50;4993970;28;20459;-58
2023/08/08 09:28:58;;;;;;;2.88;0.77;;;;;;;18.98;59.45;100051.94;4993466;28;20062;-56
2023/08/08 09:31:25;;;;;;;3.67;1.20;;;;;;;18.99;59.69;100044.91;4994737;28;20050;-59
2023/08/08 09:33:55;;;;;;;2.78;0.90;;;;;;;19.04;59.64;100050.00;4998812;28;20068;-57
2023/08/08 09:36:23;;;;;;;5.25;1.25;;;;;;;19.07;60.25;100053.38;4997977;28;20064;-58
2023/08/08 09:38:50;;;;;;;3.90;1.17;;;;;;;19.10;59.45;100049.78;4993896;28;20060;-58
2023/08/08 09:41:17;;;;;;;2.75;0.90;;;;;;;19.08;59.47;100047.22;4997963;28;20124;-59
2023/08/08 09:43:44;;;;;;;2.38;0.77;;;;;;;19.07;59.70;100049.88;5001180;28;20054;-58
2023/08/08 09:46:12;;;;;;;3.25;1.13;;;;;;;19.07;59.43;100049.88;5000726;28;20058;-58
2023/08/08 09:48:40;;;;;;;4.55;1.02;;;;;;;19.08;59.66;100049.84;4995756;28;20049;-58
2023/08/08 09:51:08;;;;;;;2.78;0.80;;;;;;;19.08;59.65;100041.13;5002009;28;20045;-58
2023/08/08 09:53:35;;;;;;;2.47;0.73;;;;;;;19.14;59.50;100040.88;5006755;28;20042;-59
2023/08/08 09:56:04;;;;;;;3.03;0.90;;;;;;;19.24;59.77;100036.97;5023415;28;20050;-59
2023/08/08 09:58:30;;;;;;;3.47;1.25;;;;;;;19.36;59.83;100034.78;5018385;28;20095;-58
2023/08/08 10:00:58;;;;;;;2.40;0.82;;;;;;;19.46;59.32;100023.00;5022655;28;20060;-57
2023/08/08 10:03:26;;;;;;;3.55;1.20;;;;;;;19.58;59.47;100033.91;5024604;28;20053;-58
2023/08/08 10:05:53;;;;;;;3.75;1.23;;;;;;;19.70;59.23;100033.44;5018288;28;20049;-58
2023/08/08 10:08:20;;;;;;;1.80;1.00;;;;;;;19.83;59.35;100027.66;5018010;28;20483;-59
2023/08/08 10:10:49;;;;;;;1.63;0.80;;;;;;;19.95;59.06;100024.50;5019267;28;20045;-59
2023/08/08 10:13:22;;;;;;;3.08;2.13;;;;;;;20.06;58.52;100017.97;5025042;28;20707;-57
2023/08/08 10:15:49;;;;;;;1.85;0.88;;;;;;;20.16;58.26;100020.13;5018395;28;20041;-57
2023/08/08 10:18:17;;;;;;;2.22;1.30;;;;;;;20.20;58.33;100017.38;5019352;28;20049;-59
2023/08/08 10:20:47;;;;;;;2.70;0.85;;;;;;;20.31;58.22;100019.53;5011167;28;20129;-58
2023/08/08 10:23:16;;;;;;;2.70;1.23;;;;;;;20.39;58.53;100014.78;5015125;28;20057;-59
2023/08/08 10:25:45;;;;;;;2.00;1.38;;;;;;;20.47;57.86;100012.66;4997765;28;20265;-59
2023/08/08 10:28:14;;;;;;;1.80;0.85;;;;;;;20.55;57.63;100015.81;4994492;28;20073;-59
2023/08/08 10:30:52;;;;;;;2.22;0.90;;;;;;;20.63;57.82;100017.22;4993931;28;20050;-57
2023/08/08 10:33:20;;;;;;;3.88;0.60;;;;;;;20.74;57.01;100014.97;4997841;28;20035;-58
2023/08/08 10:38:51;;;;;;;1.52;1.08;;;;;;;20.77;56.67;100017.44;5046648;27;20877;-59
2023/08/08 10:41:20;;;;;;;1.60;1.08;;;;;;;20.80;56.13;100030.47;4994173;28;20068;-59
2023/08/08 10:46:30;;;;;;;2.58;2.38;;;;;;;20.81;56.43;100021.66;5021663;27;20398;-58
2023/08/08 10:49:00;;;;;;;2.25;1.75;;;;;;;20.74;56.65;100020.22;5018946;28;20084;-58
2023/08/08 10:51:46;;;;;;;2.90;2.38;;;;;;;20.62;56.30;100020.78;5026594;28;20505;-58
2023/08/08 10:56:51;;;;;;;2.65;0.57;;;;;;;20.62;56.77;100040.06;5039353;27;20407;-58
2023/08/08 10:59:21;;;;;;;3.58;0.80;;;;;;;20.58;56.29;100042.91;4995279;28;20053;-59
2023/08/08 11:01:52;;;;;;;1.95;0.88;;;;;;;20.49;56.97;100042.38;5015774;28;20054;-59
2023/08/08 11:04:21;;;;;;;2.78;0.90;;;;;;;20.47;57.38;100044.22;5017313;28;20046;-57
2023/08/08 11:06:49;;;;;;;3.03;1.83;;;;;;;20.50;57.01;100036.19;5012741;28;20045;-59
2023/08/08 11:09:17;;;;;;;1.02;0.70;;;;;;;20.51;57.62;100040.56;5016409;28;20600;-60
2023/08/08 11:11:45;;;;;;;2.90;1.60;;;;;;;20.61;57.96;100034.88;5016056;28;20193;-59
2023/08/08 11:14:14;;;;;;;2.58;1.23;;;;;;;20.64;57.61;100040.00;5016078;28;20435;-59
2023/08/08 11:16:42;;;;;;;3.42;1.23;;;;;;;20.61;57.69;100042.75;5013797;28;20665;-59
2023/08/08 11:19:10;;;;;;;2.10;1.40;;;;;;;20.61;58.19;100038.38;5011623;28;20181;-60
2023/08/08 11:21:39;;;;;;;1.17;0.80;;;;;;;20.60;57.93;100033.19;5013410;28;20054;-58
2023/08/08 11:24:06;;;;;;;1.77;0.90;;;;;;;20.54;57.77;100029.88;5013813;28;20421;-59
2023/08/08 11:26:35;;;;;;;2.83;1.55;;;;;;;20.47;57.77;100017.91;5013691;28;20046;-59
2023/08/08 11:29:04;;;;;;;1.35;1.08;;;;;;;20.48;58.17;100024.03;5014787;28;20100;-60
2023/08/08 11:31:30;;;;;;;2.42;0.90;;;;;;;20.51;58.12;100024.78;5015156;28;20506;-60
2023/08/08 11:33:59;;;;;;;1.00;0.75;;;;;;;20.58;57.91;100025.34;5011602;28;20049;-60
2023/08/08 11:36:29;;;;;;;1.45;0.80;;;;;;;20.63;57.89;100025.13;5012613;28;20041;-59